createdAt,value
2018-09-02T00:01:59.388Z,23.46
2018-09-02T00:04:29.650Z,23.07
2018-09-02T00:07:00.512Z,23.07
2018-09-02T00:09:30.856Z,22.85
2018-09-02T00:12:01.161Z,23.21
2018-09-02T00:14:31.709Z,22.53
2018-09-02T00:17:02.850Z,22.53
2018-09-02T00:19:33.359Z,22.74
2018-09-02T00:22:03.901Z,22.72
2018-09-02T00:24:34.179Z,22.68
2018-09-02T00:27:05.590Z,22.58
2018-09-02T00:29:36.202Z,22.16
2018-09-02T00:32:06.742Z,22.44
2018-09-02T00:34:37.453Z,22.60
2018-09-02T00:37:08.170Z,22.72
2018-09-02T00:39:38.834Z,22.91
2018-09-02T00:42:09.282Z,22.96
2018-09-02T00:44:39.595Z,23.04
2018-09-02T00:47:10.526Z,23.10
2018-09-02T00:49:40.957Z,22.96
2018-09-02T00:52:11.468Z,22.80
2018-09-02T00:54:41.867Z,22.64
2018-09-02T00:57:12.729Z,22.68
2018-09-02T00:59:43.281Z,22.62
2018-09-02T01:02:13.634Z,22.49
2018-09-02T01:04:44.247Z,22.43
2018-09-02T01:07:15.426Z,22.65
2018-09-02T01:09:45.630Z,22.80
2018-09-02T01:12:16.183Z,22.89
2018-09-02T01:14:46.616Z,22.69
2018-09-02T01:17:17.054Z,22.74
2018-09-02T01:19:47.697Z,22.77
2018-09-02T01:22:18.298Z,22.40
2018-09-02T01:24:49.099Z,22.17
2018-09-02T01:27:19.479Z,22.50
2018-09-02T01:29:50.302Z,21.13
2018-09-02T01:32:21.050Z,21.80
2018-09-02T01:34:51.695Z,22.01
2018-09-02T01:37:23.007Z,22.13
2018-09-02T01:39:53.606Z,22.33
2018-09-02T01:42:24.300Z,21.98
2018-09-02T01:44:54.635Z,20.98
2018-09-02T01:47:25.318Z,21.71
2018-09-02T01:49:55.895Z,22.04
2018-09-02T01:52:26.374Z,22.17
2018-09-02T01:54:56.901Z,22.09
2018-09-02T01:57:28.003Z,22.21
2018-09-02T01:59:58.528Z,22.20
2018-09-02T02:02:28.998Z,22.30
2018-09-02T02:04:59.757Z,22.24
2018-09-02T02:07:30.828Z,22.25
2018-09-02T02:10:01.267Z,22.22
2018-09-02T02:12:31.776Z,21.96
2018-09-02T02:15:02.194Z,21.66
2018-09-02T02:17:33.007Z,21.92
2018-09-02T02:20:03.739Z,22.07
2018-09-02T02:22:34.508Z,21.98
2018-09-02T02:25:04.878Z,21.78
2018-09-02T02:27:36.558Z,21.76
2018-09-02T02:30:07.254Z,21.82
2018-09-02T02:32:37.847Z,21.90
2018-09-02T02:35:08.441Z,21.90
2018-09-02T02:37:38.958Z,21.84
2018-09-02T02:40:09.311Z,21.87
2018-09-02T02:42:39.747Z,21.85
2018-09-02T02:45:10.214Z,21.72
2018-09-02T02:47:41.925Z,21.65
2018-09-02T02:50:12.708Z,21.69
2018-09-02T02:52:48.213Z,21.58
2018-09-02T02:55:18.592Z,21.56
2018-09-02T02:57:49.132Z,21.48
2018-09-02T03:00:19.790Z,21.40
2018-09-02T03:02:49.864Z,21.40
2018-09-02T03:05:20.516Z,21.49
2018-09-02T03:07:51.275Z,21.58
2018-09-02T03:10:21.811Z,21.62
2018-09-02T03:12:52.294Z,21.56
2018-09-02T03:15:22.937Z,21.62
2018-09-02T03:17:53.853Z,21.51
2018-09-02T03:20:24.434Z,21.62
2018-09-02T03:22:55.135Z,21.60
2018-09-02T03:25:25.553Z,21.49
2018-09-02T03:27:56.599Z,21.56
2018-09-02T03:30:26.957Z,21.53
2018-09-02T03:32:57.531Z,21.49
2018-09-02T03:35:28.001Z,21.33
2018-09-02T03:37:58.903Z,21.25
2018-09-02T03:40:29.305Z,21.39
2018-09-02T03:42:59.571Z,21.69
2018-09-02T03:45:29.931Z,21.77
2018-09-02T03:48:01.370Z,21.72
2018-09-02T03:50:32.091Z,21.50
2018-09-02T03:53:02.170Z,21.03
2018-09-02T03:55:32.551Z,21.32
2018-09-02T03:58:03.554Z,21.35
2018-09-02T04:00:34.117Z,21.30
2018-09-02T04:03:04.969Z,20.25
2018-09-02T04:05:35.582Z,20.26
2018-09-02T04:08:06.567Z,20.78
2018-09-02T04:10:37.045Z,20.95
2018-09-02T04:13:07.923Z,21.37
2018-09-02T04:15:38.496Z,21.05
2018-09-02T04:18:09.711Z,20.76
2018-09-02T04:20:40.137Z,20.96
2018-09-02T04:23:10.515Z,21.13
2018-09-02T04:25:41.393Z,21.34
2018-09-02T04:28:12.624Z,20.96
2018-09-02T04:30:43.163Z,20.29
2018-09-02T04:33:13.774Z,20.23
2018-09-02T04:35:44.194Z,20.36
2018-09-02T04:38:14.894Z,19.84
2018-09-02T04:40:45.582Z,19.63
2018-09-02T04:43:16.267Z,19.44
2018-09-02T04:45:46.658Z,19.69
2018-09-02T04:48:18.333Z,19.97
2018-09-02T04:50:48.879Z,19.99
2018-09-02T04:53:19.034Z,19.66
2018-09-02T04:55:49.635Z,19.51
2018-09-02T04:58:20.343Z,19.61
2018-09-02T05:00:51.008Z,20.14
2018-09-02T05:03:21.291Z,20.54
2018-09-02T05:05:52.109Z,20.85
2018-09-02T05:08:23.379Z,21.09
2018-09-02T05:10:53.908Z,20.93
2018-09-02T05:13:24.215Z,20.72
2018-09-02T05:15:54.688Z,20.09
2018-09-02T05:18:27.259Z,19.98
2018-09-02T05:20:57.967Z,19.84
2018-09-02T05:23:28.340Z,20.06
2018-09-02T05:25:59.045Z,20.45
2018-09-02T05:28:29.960Z,20.88
2018-09-02T05:31:00.899Z,21.52
2018-09-02T05:33:31.650Z,21.10
2018-09-02T05:36:02.591Z,21.48
2018-09-02T05:38:34.036Z,21.64
2018-09-02T05:41:05.266Z,21.93
2018-09-02T05:43:35.665Z,21.60
2018-09-02T05:46:06.140Z,21.94
2018-09-02T05:48:36.977Z,22.32
2018-09-02T05:51:07.743Z,22.60
2018-09-02T05:53:38.553Z,22.12
2018-09-02T05:56:09.258Z,22.30
2018-09-02T05:58:40.378Z,22.50
2018-09-02T06:01:10.804Z,22.91
2018-09-02T06:03:41.328Z,23.57
2018-09-02T06:06:12.176Z,24.11
2018-09-02T06:08:42.249Z,23.27
2018-09-02T06:11:11.812Z,23.63
2018-09-02T06:13:41.608Z,23.65
2018-09-02T06:16:11.561Z,23.46
2018-09-02T06:18:41.451Z,23.20
2018-09-02T06:21:11.237Z,23.32
2018-09-02T06:23:41.030Z,23.85
2018-09-02T06:26:10.829Z,24.54
2018-09-02T06:28:40.713Z,23.53
2018-09-02T06:32:13.473Z,23.70
2018-09-02T06:34:43.341Z,24.35
2018-09-02T06:37:13.184Z,25.14
2018-09-02T06:39:43.053Z,25.14
2018-09-02T06:42:12.787Z,25.57
2018-09-02T06:44:42.663Z,25.06
2018-09-02T06:47:12.506Z,24.87
2018-09-02T06:49:42.479Z,25.80
2018-09-02T06:52:12.241Z,25.75
2018-09-02T06:54:42.005Z,26.39
2018-09-02T06:57:11.967Z,25.94
2018-09-02T06:59:41.700Z,26.53
2018-09-02T07:02:11.571Z,27.40
2018-09-02T07:04:41.421Z,27.07
2018-09-02T07:07:11.288Z,28.20
2018-09-02T07:09:41.100Z,27.75
2018-09-02T07:12:10.963Z,27.43
2018-09-02T07:14:40.908Z,27.30
2018-09-02T07:17:10.738Z,27.19
2018-09-02T07:19:40.566Z,27.28
2018-09-02T07:22:10.371Z,27.68
2018-09-02T07:24:40.189Z,27.95
2018-09-02T07:27:10.055Z,27.94
2018-09-02T07:29:39.894Z,28.32
2018-09-02T07:32:09.743Z,28.99
2018-09-02T07:34:39.510Z,29.10
2018-09-02T07:37:09.474Z,29.17
2018-09-02T07:39:39.226Z,29.57
2018-09-02T07:42:09.180Z,29.30
2018-09-02T07:44:39.669Z,28.93
2018-09-02T07:47:09.519Z,30.05
2018-09-02T07:49:39.287Z,31.19
2018-09-02T07:52:09.179Z,31.05
2018-09-02T07:54:39.094Z,30.41
2018-09-02T07:57:09.002Z,30.66
2018-09-02T07:59:38.873Z,31.75
2018-09-02T08:02:08.941Z,31.99
2018-09-02T08:04:38.691Z,30.79
2018-09-02T08:07:08.035Z,31.28
2018-09-02T08:09:37.767Z,31.42
2018-09-02T08:12:07.627Z,32.11
2018-09-02T08:14:37.518Z,32.11
2018-09-02T08:17:07.618Z,32.32
2018-09-02T08:19:37.383Z,32.27
2018-09-02T08:22:07.238Z,33.49
2018-09-02T08:24:37.053Z,32.64
2018-09-02T08:27:06.866Z,33.64
2018-09-02T08:29:36.703Z,34.09
2018-09-02T08:32:06.560Z,34.13
2018-09-02T08:34:36.335Z,33.60
2018-09-02T08:37:06.157Z,32.60
2018-09-02T08:39:35.868Z,33.26
2018-09-02T08:42:05.699Z,33.38
2018-09-02T08:44:35.544Z,33.72
2018-09-02T08:47:05.493Z,34.47
2018-09-02T08:49:35.204Z,34.96
2018-09-02T08:52:04.886Z,35.41
2018-09-02T08:54:34.728Z,35.56
2018-09-02T08:57:04.472Z,34.74
2018-09-02T08:59:34.165Z,35.29
2018-09-02T09:02:04.138Z,35.85
2018-09-02T09:04:33.951Z,36.09
2018-09-02T09:07:03.690Z,35.80
2018-09-02T09:09:33.526Z,35.77
2018-09-02T09:12:03.652Z,35.55
2018-09-02T09:14:33.641Z,37.17
2018-09-02T09:17:04.098Z,37.45
2018-09-02T09:19:33.816Z,37.25
2018-09-02T09:22:03.508Z,36.97
2018-09-02T09:24:33.288Z,36.55
2018-09-02T09:27:03.129Z,37.10
2018-09-02T09:29:32.970Z,36.85
2018-09-02T09:32:02.836Z,37.63
2018-09-02T09:34:32.609Z,38.39
2018-09-02T09:37:02.450Z,39.24
2018-09-02T09:39:32.263Z,38.71
2018-09-02T09:42:02.029Z,38.86
2018-09-02T09:44:31.914Z,39.48
2018-09-02T09:47:01.670Z,39.85
2018-09-02T09:49:31.761Z,40.05
2018-09-02T09:52:01.719Z,39.95
2018-09-02T09:54:31.500Z,39.66
2018-09-02T09:57:01.340Z,38.63
2018-09-02T09:59:31.128Z,39.65
2018-09-02T10:02:00.972Z,40.45
2018-09-02T10:04:30.863Z,40.05
2018-09-02T10:07:00.560Z,39.75
2018-09-02T10:09:30.504Z,37.87
2018-09-02T10:12:00.413Z,39.10
2018-09-02T10:14:30.141Z,38.53
2018-09-02T10:16:59.798Z,38.76
2018-09-02T10:19:29.667Z,39.17
2018-09-02T10:21:59.578Z,39.77
2018-09-02T10:24:29.188Z,39.74
2018-09-02T10:26:58.907Z,40.13
2018-09-02T10:29:28.629Z,39.66
2018-09-02T10:31:58.368Z,39.57
2018-09-02T10:34:28.058Z,40.13
2018-09-02T10:36:58.517Z,40.27
2018-09-02T10:39:28.298Z,40.84
2018-09-02T10:41:58.258Z,40.55
2018-09-02T10:44:28.139Z,40.86
2018-09-02T10:46:58.865Z,41.64
2018-09-02T10:49:28.769Z,40.65
2018-09-02T10:51:58.521Z,40.75
2018-09-02T10:54:28.328Z,41.12
2018-09-02T10:56:58.150Z,41.21
2018-09-02T10:59:28.021Z,40.67
2018-09-02T11:01:57.898Z,41.60
2018-09-02T11:04:27.719Z,40.80
2018-09-02T11:06:57.556Z,40.26
2018-09-02T11:09:27.518Z,40.73
2018-09-02T11:11:57.416Z,40.42
2018-09-02T11:14:27.140Z,41.39
2018-09-02T11:16:56.970Z,42.20
2018-09-02T11:19:26.723Z,42.44
2018-09-02T11:21:56.488Z,41.85
2018-09-02T11:24:26.275Z,40.55
2018-09-02T11:26:55.954Z,40.13
2018-09-02T11:29:25.973Z,40.06
2018-09-02T11:31:55.732Z,40.63
2018-09-02T11:34:25.501Z,40.99
2018-09-02T11:36:55.353Z,41.85
2018-09-02T11:39:25.256Z,39.16
2018-09-02T11:41:54.945Z,40.56
2018-09-02T11:44:24.656Z,39.36
2018-09-02T11:46:54.501Z,40.31
2018-09-02T11:49:55.573Z,41.48
2018-09-02T11:52:25.742Z,41.85
2018-09-02T11:54:55.552Z,42.23
2018-09-02T11:57:25.399Z,41.65
2018-09-02T11:59:54.990Z,41.78
2018-09-02T12:02:24.888Z,42.21
2018-09-02T12:04:54.705Z,41.49
2018-09-02T12:07:24.465Z,41.45
2018-09-02T12:09:54.282Z,41.60
2018-09-02T12:12:24.018Z,42.32
2018-09-02T12:14:53.968Z,42.48
2018-09-02T12:17:23.778Z,42.10
2018-09-02T12:19:53.510Z,41.47
2018-09-02T12:22:23.283Z,41.93
2018-09-02T12:24:53.272Z,42.30
2018-09-02T12:27:23.163Z,41.26
2018-09-02T12:29:53.002Z,39.84
2018-09-02T12:32:22.737Z,40.93
2018-09-02T12:34:52.586Z,40.99
2018-09-02T12:37:22.461Z,41.81
2018-09-02T12:39:52.200Z,41.23
2018-09-02T12:42:22.113Z,41.39
2018-09-02T12:44:51.888Z,41.55
2018-09-02T12:47:21.735Z,40.83
2018-09-02T12:49:51.499Z,40.52
2018-09-02T12:52:21.303Z,40.07
2018-09-02T12:54:51.448Z,40.69
2018-09-02T12:57:21.291Z,41.14
2018-09-02T12:59:50.881Z,41.38
2018-09-02T13:02:20.572Z,41.99
2018-09-02T13:04:50.337Z,41.66
2018-09-02T13:07:20.094Z,41.26
2018-09-02T13:09:49.681Z,41.25
2018-09-02T13:12:19.332Z,41.36
2018-09-02T13:14:49.160Z,41.31
2018-09-02T13:17:18.850Z,40.06
2018-09-02T13:19:48.674Z,40.33
2018-09-02T13:22:18.580Z,40.47
2018-09-02T13:24:48.334Z,40.57
2018-09-02T13:27:18.117Z,40.69
2018-09-02T13:29:47.872Z,39.79
2018-09-02T13:32:17.793Z,39.79
2018-09-02T13:34:47.750Z,39.80
2018-09-02T13:37:17.373Z,37.87
2018-09-02T13:39:47.219Z,37.84
2018-09-02T13:42:17.437Z,38.65
2018-09-02T13:44:47.266Z,39.80
2018-09-02T13:47:17.142Z,39.60
2018-09-02T13:49:47.040Z,39.94
2018-09-02T13:52:16.892Z,39.60
2018-09-02T13:54:46.719Z,40.47
2018-09-02T13:57:16.501Z,39.84
2018-09-02T13:59:46.436Z,40.05
2018-09-02T14:02:16.240Z,39.29
2018-09-02T14:04:45.878Z,39.71
2018-09-02T14:07:15.731Z,39.71
2018-09-02T14:09:45.490Z,39.16
2018-09-02T14:12:15.288Z,38.97
2018-09-02T14:14:45.143Z,39.15
2018-09-02T14:17:15.071Z,39.68
2018-09-02T14:19:44.786Z,39.91
2018-09-02T14:22:14.709Z,38.98
2018-09-02T14:24:44.523Z,38.35
2018-09-02T14:27:14.999Z,39.08
2018-09-02T14:29:45.861Z,39.27
2018-09-02T14:32:16.385Z,38.79
2018-09-02T14:34:47.844Z,38.44
2018-09-02T14:37:18.077Z,37.85
2018-09-02T14:39:48.679Z,37.71
2018-09-02T14:42:19.010Z,37.13
2018-09-02T14:44:49.879Z,37.05
2018-09-02T14:47:20.122Z,37.78
2018-09-02T14:49:50.581Z,36.58
2018-09-02T14:52:21.302Z,37.01
2018-09-02T14:54:52.306Z,36.95
2018-09-02T14:57:23.408Z,37.22
2018-09-02T14:59:53.963Z,36.56
2018-09-02T15:02:24.474Z,36.47
2018-09-02T15:04:55.435Z,36.16
2018-09-02T15:07:25.916Z,35.39
2018-09-02T15:09:56.136Z,36.16
2018-09-02T15:12:26.459Z,36.22
2018-09-02T15:14:57.326Z,36.32
2018-09-02T15:17:27.946Z,35.87
2018-09-02T15:19:58.565Z,35.94
2018-09-02T15:22:29.532Z,35.85
2018-09-02T15:25:00.742Z,35.98
2018-09-02T15:27:31.350Z,36.28
2018-09-02T15:30:02.216Z,35.62
2018-09-02T15:32:33.258Z,35.48
2018-09-02T15:35:04.662Z,35.73
2018-09-02T15:37:35.085Z,35.43
2018-09-02T15:40:05.973Z,35.50
2018-09-02T15:42:36.478Z,35.72
2018-09-02T15:45:08.566Z,35.54
2018-09-02T15:47:38.914Z,35.12
2018-09-02T15:50:09.709Z,34.59
2018-09-02T15:52:40.210Z,34.68
2018-09-02T15:55:11.372Z,33.91
2018-09-02T15:57:42.227Z,33.74
2018-09-02T16:00:12.363Z,33.62
2018-09-02T16:02:42.549Z,33.78
2018-09-02T16:05:14.159Z,33.94
2018-09-02T16:07:44.726Z,34.24
2018-09-02T16:10:14.460Z,34.38
2018-09-02T16:12:44.287Z,34.17
2018-09-02T16:15:14.008Z,33.70
2018-09-02T16:17:43.750Z,33.11
2018-09-02T16:20:13.720Z,32.77
2018-09-02T16:22:43.588Z,32.51
2018-09-02T16:25:13.277Z,32.32
2018-09-02T16:27:43.097Z,32.06
2018-09-02T16:30:13.381Z,32.27
2018-09-02T16:32:43.117Z,32.47
2018-09-02T16:35:13.023Z,32.21
2018-09-02T16:37:42.964Z,32.22
2018-09-02T16:40:12.778Z,32.32
2018-09-02T16:42:42.558Z,32.39
2018-09-02T16:45:12.546Z,32.31
2018-09-02T16:47:42.243Z,31.50
2018-09-02T16:50:12.156Z,31.25
2018-09-02T16:52:41.924Z,31.30
2018-09-02T16:55:11.855Z,31.33
2018-09-02T16:57:41.711Z,31.31
2018-09-02T17:00:12.076Z,31.36
2018-09-02T17:02:41.947Z,31.43
2018-09-02T17:05:27.021Z,31.13
2018-09-02T17:07:56.947Z,31.19
2018-09-02T17:10:27.666Z,31.08
2018-09-02T17:12:57.829Z,31.13
2018-09-02T17:15:28.502Z,31.12
2018-09-02T17:17:58.463Z,30.99
2018-09-02T17:20:31.936Z,30.85
2018-09-02T17:23:06.660Z,30.21
2018-09-02T17:25:36.582Z,28.96
2018-09-02T17:28:06.393Z,29.45
2018-09-02T17:30:36.547Z,29.09
2018-09-02T17:33:06.944Z,29.01
2018-09-02T17:36:08.668Z,29.13
2018-09-02T17:38:38.467Z,28.37
2018-09-02T17:41:08.254Z,28.39
2018-09-02T17:43:37.991Z,28.16
2018-09-02T17:46:07.813Z,28.08
2018-09-02T17:48:37.667Z,28.08
2018-09-02T17:51:07.530Z,28.00
2018-09-02T17:53:37.355Z,27.69
2018-09-02T17:56:07.135Z,27.64
2018-09-02T17:58:36.951Z,27.42
2018-09-02T18:01:07.471Z,27.30
2018-09-02T18:03:37.747Z,27.48
2018-09-02T18:06:07.571Z,27.46
2018-09-02T18:08:37.403Z,27.46
2018-09-02T18:11:07.877Z,27.73
2018-09-02T18:13:37.652Z,27.22
2018-09-02T18:16:07.831Z,26.89
2018-09-02T18:18:38.140Z,26.78
2018-09-02T18:21:07.984Z,26.73
2018-09-02T18:23:37.818Z,26.72
2018-09-02T18:26:07.653Z,26.19
2018-09-02T18:28:42.675Z,26.06
2018-09-02T18:31:12.436Z,26.06
2018-09-02T18:33:42.391Z,26.16
2018-09-02T18:36:12.177Z,26.05
2018-09-02T18:38:42.067Z,25.91
2018-09-02T18:41:11.774Z,25.83
2018-09-02T18:43:41.621Z,25.80
2018-09-02T18:46:11.420Z,25.88
2018-09-02T18:48:41.163Z,26.07
2018-09-02T18:51:10.812Z,25.95
2018-09-02T18:53:40.623Z,25.93
2018-09-02T18:56:10.508Z,25.78
2018-09-02T18:58:40.263Z,25.76
2018-09-02T19:01:10.441Z,25.59
2018-09-02T19:03:40.218Z,25.60
2018-09-02T19:06:09.981Z,25.57
2018-09-02T19:08:39.839Z,25.50
2018-09-02T19:11:09.768Z,25.52
2018-09-02T19:13:39.675Z,25.43
2018-09-02T19:16:09.620Z,25.29
2018-09-02T19:18:39.375Z,25.30
2018-09-02T19:21:09.146Z,25.50
2018-09-02T19:23:38.882Z,25.25
2018-09-02T19:26:08.660Z,25.34
2018-09-02T19:28:38.478Z,25.17
2018-09-02T19:31:08.240Z,25.08
2018-09-02T19:33:38.097Z,25.32
2018-09-02T19:36:07.929Z,25.31
2018-09-02T19:38:37.890Z,25.12
2018-09-02T19:41:07.648Z,24.85
2018-09-02T19:43:37.420Z,24.87
2018-09-02T19:46:07.306Z,24.78
2018-09-02T19:48:37.239Z,24.73
2018-09-02T19:51:07.595Z,24.85
2018-09-02T19:53:38.066Z,25.04
2018-09-02T19:56:07.920Z,25.49
2018-09-02T19:58:38.095Z,25.22
2018-09-02T20:01:08.846Z,25.14
2018-09-02T20:03:39.551Z,25.03
2018-09-02T20:06:10.351Z,25.27
2018-09-02T20:08:40.876Z,24.95
2018-09-02T20:11:10.654Z,24.60
2018-09-02T20:13:41.420Z,24.81
2018-09-02T20:16:11.650Z,25.22
2018-09-02T20:18:42.339Z,25.42
2018-09-02T20:21:12.832Z,25.52
2018-09-02T20:23:44.250Z,25.43
2018-09-02T20:26:14.894Z,24.78
2018-09-02T20:28:45.561Z,24.40
2018-09-02T20:31:16.027Z,24.23
2018-09-02T20:33:47.216Z,24.24
2018-09-02T20:36:18.042Z,24.15
2018-09-02T20:38:48.757Z,24.03
2018-09-02T20:41:19.466Z,23.87
2018-09-02T20:43:50.424Z,23.75
2018-09-02T20:46:20.891Z,23.39
2018-09-02T20:48:51.131Z,23.50
2018-09-02T20:51:21.630Z,23.40
2018-09-02T20:53:52.197Z,23.46
2018-09-02T20:56:22.797Z,23.89
2018-09-02T20:58:53.118Z,24.44
2018-09-02T21:01:23.690Z,24.66
2018-09-02T21:03:54.712Z,24.84
2018-09-02T21:06:25.000Z,24.93
2018-09-02T21:08:55.526Z,24.95
2018-09-02T21:11:25.686Z,24.70
2018-09-02T21:13:57.376Z,23.95
2018-09-02T21:16:27.744Z,23.86
2018-09-02T21:18:58.102Z,24.16
2018-09-02T21:21:28.741Z,23.95
2018-09-02T21:23:59.389Z,23.91
2018-09-02T21:26:30.032Z,24.06
2018-09-02T21:29:00.410Z,23.51
2018-09-02T21:31:31.322Z,23.48
2018-09-02T21:34:02.612Z,23.55
2018-09-02T21:36:33.075Z,23.49
2018-09-02T21:39:03.279Z,24.10
2018-09-02T21:41:33.510Z,23.83
2018-09-02T21:44:04.963Z,24.12
2018-09-02T21:46:35.545Z,24.42
2018-09-02T21:49:06.078Z,24.61
2018-09-02T21:51:36.679Z,24.42
2018-09-02T21:54:08.219Z,23.65
2018-09-02T21:56:38.342Z,23.92
2018-09-02T21:59:08.558Z,24.31
2018-09-02T22:01:39.325Z,24.44
2018-09-02T22:04:10.778Z,24.15
2018-09-02T22:06:41.349Z,23.96
2018-09-02T22:09:12.011Z,24.15
2018-09-02T22:11:42.709Z,24.03
2018-09-02T22:14:13.987Z,23.94
2018-09-02T22:16:45.290Z,24.09
2018-09-02T22:19:15.913Z,23.96
2018-09-02T22:21:46.362Z,24.10
2018-09-02T22:24:17.574Z,24.24
2018-09-02T22:26:48.229Z,24.16
2018-09-02T22:29:18.428Z,23.95
2018-09-02T22:31:48.869Z,23.10
2018-09-02T22:34:19.798Z,22.45
2018-09-02T22:36:50.363Z,22.32
2018-09-02T22:39:20.885Z,22.43
2018-09-02T22:41:51.203Z,22.31
2018-09-02T22:44:22.911Z,22.29
2018-09-02T22:46:53.480Z,22.29
2018-09-02T22:54:16.482Z,22.40
2018-09-02T22:56:46.790Z,22.48
2018-09-02T22:59:16.853Z,22.38
2018-09-02T23:01:47.320Z,22.98
2018-09-02T23:04:17.833Z,23.45
2018-09-02T23:06:47.982Z,23.69
2018-09-02T23:09:18.372Z,23.49
2018-09-02T23:11:49.206Z,23.68
2018-09-02T23:14:19.543Z,23.68
2018-09-02T23:16:50.003Z,23.75
2018-09-02T23:19:20.574Z,23.82
2018-09-02T23:21:52.119Z,23.79
2018-09-02T23:24:22.508Z,23.65
2018-09-02T23:26:52.899Z,23.30
2018-09-02T23:29:23.420Z,23.58
2018-09-02T23:31:54.904Z,23.77
2018-09-02T23:34:25.407Z,23.81
2018-09-02T23:36:55.766Z,23.78
2018-09-02T23:39:26.446Z,23.77
2018-09-02T23:41:57.327Z,23.69
2018-09-02T23:44:27.746Z,23.69
2018-09-02T23:46:58.343Z,23.71
2018-09-02T23:49:28.899Z,23.68
2018-09-02T23:51:59.923Z,23.52
2018-09-02T23:54:30.562Z,23.26
2018-09-02T23:57:01.002Z,23.48
2018-09-02T23:59:31.294Z,23.49
